Time;durP1;ratioP1;P1;durP2;ratioP2;P2;SDS_P1;SDS_P2;PMS_P1;PMS_P2;Temp;Humidity;BMP_temperature;BMP_pressure;BME280_temperature;BME280_humidity;BME280_pressure;Samples;Min_cycle;Max_cycle;Signal;HPM_P1;HPM_P2
2022/08/09 00:02:08;;;;;;;;;;;;;;;26.34;41.35;98561.16;4992122;28;19930;-85
2022/08/09 00:04:36;;;;;;;;;;;;;;;26.31;41.47;98559.09;4996315;28;20008;-84
2022/08/09 00:07:03;;;;;;;;;;;;;;;26.28;41.40;98554.31;4993474;28;20020;-86
2022/08/09 00:09:30;;;;;;;;;;;;;;;26.34;41.42;98550.19;4994374;28;19957;-83
2022/08/09 00:11:56;;;;;;;;;;;;;;;26.18;41.56;98544.69;4993334;28;19976;-85
2022/08/09 00:14:23;;;;;;;;;;;;;;;26.21;41.50;98554.94;4974422;28;19933;-86
2022/08/09 00:16:49;;;;;;;;;;;;;;;26.14;41.51;98551.19;4982179;28;19940;-84
2022/08/09 00:19:15;;;;;;;;;;;;;;;26.21;41.42;98552.19;4985024;28;19929;-85
2022/08/09 00:21:43;;;;;;;;;;;;;;;26.18;41.57;98561.09;4986016;28;19926;-84
2022/08/09 00:24:10;;;;;;;;;;;;;;;26.21;41.49;98554.16;4982716;28;19930;-84
2022/08/09 00:26:37;;;;;;;;;;;;;;;26.20;41.35;98553.34;4998045;28;19936;-84
2022/08/09 00:29:04;;;;;;;;;;;;;;;26.17;41.46;98556.78;4988332;28;19961;-84
2022/08/09 00:31:31;;;;;;;;;;;;;;;26.13;41.48;98557.81;4990223;28;20016;-84
2022/08/09 00:33:57;;;;;;;;;;;;;;;26.13;41.53;98557.81;4994845;28;19979;-85
2022/08/09 00:36:24;;;;;;;;;;;;;;;26.09;41.62;98552.22;4996637;28;19934;-84
2022/08/09 00:38:52;;;;;;;;;;;;;;;26.06;41.64;98555.66;4993117;28;19936;-84
2022/08/09 00:41:21;;;;;;;;;;;;;;;26.10;41.58;98553.03;5010024;28;20526;-85
2022/08/09 00:43:47;;;;;;;;;;;;;;;26.12;41.69;98558.97;5004671;28;19980;-85
2022/08/09 00:46:14;;;;;;;;;;;;;;;26.09;41.59;98557.69;5006282;28;19959;-84
2022/08/09 00:48:40;;;;;;;;;;;;;;;26.01;41.78;98557.84;4993293;28;19926;-84
2022/08/09 00:51:07;;;;;;;;;;;;;;;26.02;41.73;98556.72;4994708;28;20009;-86
2022/08/09 00:53:34;;;;;;;;;;;;;;;26.01;41.82;98557.84;5006326;28;19930;-87
2022/08/09 00:56:02;;;;;;;;;;;;;;;25.96;41.78;98558.09;4994113;28;20376;-84
2022/08/09 00:58:30;;;;;;;;;;;;;;;25.94;42.11;98552.16;4994410;28;19936;-86
2022/08/09 01:00:56;;;;;;;;;;;;;;;25.91;42.17;98558.34;4998230;28;20538;-86
2022/08/09 01:03:27;;;;;;;;;;;;;;;25.88;42.39;98550.81;5000291;28;19929;-84
2022/08/09 01:05:57;;;;;;;;;;;;;;;25.91;42.33;98550.13;4990241;28;20361;-85
2022/08/09 01:08:27;;;;;;;;;;;;;;;25.85;42.57;98551.53;5006076;28;19929;-85
2022/08/09 01:10:58;;;;;;;;;;;;;;;25.88;42.51;98550.81;5003297;28;20102;-86
2022/08/09 01:13:32;;;;;;;;;;;;;;;25.87;42.57;98561.00;5019426;28;19929;-84
2022/08/09 01:15:59;;;;;;;;;;;;;;;25.88;42.61;98557.09;4995242;28;19945;-83
2022/08/09 01:18:28;;;;;;;;;;;;;;;25.84;42.80;98549.94;5019493;28;19929;-85
2022/08/09 01:21:00;;;;;;;;;;;;;;;25.83;42.75;98553.81;5003799;28;20021;-85
2022/08/09 01:23:42;;;;;;;;;;;;;;;25.81;42.88;98561.59;5000799;28;19933;-85
2022/08/09 01:26:19;;;;;;;;;;;;;;;25.81;42.92;98556.13;4993640;28;19936;-86
2022/08/09 01:28:50;;;;;;;;;;;;;;;25.76;43.07;98554.41;5018710;28;20580;-84
2022/08/09 01:31:19;;;;;;;;;;;;;;;25.70;43.35;98562.06;4990668;28;20430;-85
2022/08/09 01:33:47;;;;;;;;;;;;;;;25.68;43.40;98561.63;5013702;28;20427;-85
2022/08/09 01:36:15;;;;;;;;;;;;;;;25.69;43.43;98557.72;5005423;28;20504;-84
2022/08/09 01:38:42;;;;;;;;;;;;;;;25.69;43.35;98556.94;4990534;28;20008;-84
2022/08/09 01:41:19;;;;;;;;;;;;;;;25.69;43.65;98563.19;5006157;28;19932;-85
2022/08/09 01:43:47;;;;;;;;;;;;;;;25.63;43.85;98570.06;4995621;28;20028;-85
2022/08/09 01:46:15;;;;;;;;;;;;;;;25.58;44.01;98559.38;5006356;28;20408;-84
2022/08/09 01:48:42;;;;;;;;;;;;;;;25.52;44.03;98568.16;4994559;28;19960;-85
2022/08/09 01:51:09;;;;;;;;;;;;;;;25.50;44.18;98568.47;5005663;28;20418;-84
2022/08/09 01:53:36;;;;;;;;;;;;;;;25.52;44.23;98566.22;4993383;28;20044;-85
2022/08/09 01:56:03;;;;;;;;;;;;;;;25.30;44.72;98572.13;4998035;28;20021;-85
2022/08/09 01:58:31;;;;;;;;;;;;;;;25.27;44.73;98566.56;4989073;28;20017;-84
2022/08/09 02:00:58;;;;;;;;;;;;;;;25.07;45.04;98577.25;4988579;28;19925;-85
2022/08/09 02:03:29;;;;;;;;;;;;;;;25.09;44.86;98575.00;4995157;28;20193;-84
2022/08/09 02:05:56;;;;;;;;;;;;;;;25.09;44.89;98568.72;4994419;28;19992;-84
2022/08/09 02:08:23;;;;;;;;;;;;;;;24.87;45.27;98574.63;4995497;28;19929;-85
2022/08/09 02:10:50;;;;;;;;;;;;;;;24.20;46.12;98581.28;4995692;28;20402;-84
2022/08/09 02:13:19;;;;;;;;;;;;;;;24.61;45.64;98575.69;4995611;28;19936;-85
2022/08/09 02:15:48;;;;;;;;;;;;;;;24.85;45.37;98580.44;4993270;28;19948;-85
2022/08/09 02:18:17;;;;;;;;;;;;;;;25.02;45.15;98584.88;4996171;28;19976;-87
2022/08/09 02:20:46;;;;;;;;;;;;;;;25.17;44.80;98581.47;4986503;28;19925;-85
2022/08/09 02:23:14;;;;;;;;;;;;;;;25.20;44.67;98580.78;4995976;28;20004;-85
2022/08/09 02:25:42;;;;;;;;;;;;;;;25.19;44.69;98579.22;4995319;28;19987;-84
2022/08/09 02:28:11;;;;;;;;;;;;;;;25.23;44.47;98585.56;4997180;28;19925;-85
2022/08/09 02:30:40;;;;;;;;;;;;;;;25.06;44.40;98581.16;4998328;28;19933;-87
2022/08/09 02:33:07;;;;;;;;;;;;;;;25.16;44.48;98579.91;4996999;28;20408;-85
2022/08/09 02:35:36;;;;;;;;;;;;;;;25.20;44.47;98576.13;4997361;28;19930;-84
2022/08/09 02:38:05;;;;;;;;;;;;;;;25.19;44.36;98576.47;4979694;28;19925;-85
2022/08/09 02:40:33;;;;;;;;;;;;;;;25.20;44.40;98575.31;4985695;28;19933;-85
2022/08/09 02:43:00;;;;;;;;;;;;;;;25.15;44.24;98578.28;4988585;28;19926;-85
2022/08/09 02:45:29;;;;;;;;;;;;;;;25.09;44.39;98580.47;4982571;28;20183;-85
2022/08/09 02:47:58;;;;;;;;;;;;;;;24.91;44.58;98583.75;4983208;28;19925;-87
2022/08/09 02:50:26;;;;;;;;;;;;;;;24.69;45.02;98580.28;4977754;28;19926;-85
2022/08/09 02:52:54;;;;;;;;;;;;;;;24.78;45.06;98582.13;4997704;28;19929;-85
2022/08/09 02:55:23;;;;;;;;;;;;;;;24.81;44.67;98573.25;4983177;28;19926;-86
2022/08/09 02:57:53;;;;;;;;;;;;;;;24.86;44.74;98583.97;4981123;28;20311;-85
2022/08/09 03:00:19;;;;;;;;;;;;;;;24.91;44.61;98575.56;4984120;28;19936;-87
2022/08/09 03:02:47;;;;;;;;;;;;;;;24.86;44.63;98581.22;4995311;28;19932;-85
2022/08/09 03:05:15;;;;;;;;;;;;;;;24.69;44.96;98583.03;4996477;28;20016;-84
2022/08/09 03:07:42;;;;;;;;;;;;;;;24.75;44.96;98586.31;4991265;28;19926;-85
2022/08/09 03:10:09;;;;;;;;;;;;;;;24.76;44.88;98581.66;4996545;28;19929;-85
2022/08/09 03:12:38;;;;;;;;;;;;;;;24.84;44.92;98592.50;4999611;28;20516;-84
2022/08/09 03:15:06;;;;;;;;;;;;;;;24.90;44.79;98587.63;5009184;28;20036;-85
2022/08/09 03:17:34;;;;;;;;;;;;;;;24.81;44.83;98589.63;5008252;28;19931;-86
2022/08/09 03:20:02;;;;;;;;;;;;;;;24.57;45.22;98591.16;5007197;28;19929;-84
2022/08/09 03:22:30;;;;;;;;;;;;;;;24.51;45.58;98592.50;5007054;28;20510;-85
2022/08/09 03:24:56;;;;;;;;;;;;;;;24.61;45.53;98585.81;5004170;28;19930;-86
2022/08/09 03:27:24;;;;;;;;;;;;;;;24.51;45.32;98589.00;5008369;28;20024;-86
2022/08/09 03:29:52;;;;;;;;;;;;;;;24.57;45.46;98591.16;5006710;28;19926;-85
2022/08/09 03:32:19;;;;;;;;;;;;;;;24.44;45.59;98592.28;5002107;28;20016;-85
2022/08/09 03:34:46;;;;;;;;;;;;;;;24.12;46.16;98591.16;4997948;28;19932;-85
2022/08/09 03:37:12;;;;;;;;;;;;;;;24.16;46.26;98591.28;4995503;28;19930;-86
2022/08/09 03:39:38;;;;;;;;;;;;;;;24.27;45.97;98591.63;4992422;28;19930;-85
2022/08/09 03:42:05;;;;;;;;;;;;;;;24.42;45.96;98591.81;4997872;28;20049;-85
2022/08/09 03:44:31;;;;;;;;;;;;;;;24.52;45.72;98593.31;4996224;28;20024;-84
2022/08/09 03:46:59;;;;;;;;;;;;;;;24.54;45.60;98589.09;4995246;28;19929;-84
2022/08/09 03:49:27;;;;;;;;;;;;;;;24.59;45.55;98590.84;4995808;28;20487;-87
2022/08/09 03:51:58;;;;;;;;;;;;;;;24.58;45.51;98591.97;4992879;28;19932;-85
2022/08/09 03:54:26;;;;;;;;;;;;;;;24.61;45.40;98597.56;5000583;28;19967;-85
2022/08/09 03:56:53;;;;;;;;;;;;;;;24.56;45.72;98602.44;4991496;28;20297;-85
2022/08/09 03:59:19;;;;;;;;;;;;;;;24.53;45.79;98594.91;4999086;28;19980;-86
2022/08/09 04:01:46;;;;;;;;;;;;;;;24.50;45.63;98604.59;4999955;28;19972;-85
2022/08/09 04:04:15;;;;;;;;;;;;;;;24.52;45.74;98599.59;5007142;28;19968;-83
2022/08/09 04:06:41;;;;;;;;;;;;;;;24.52;45.96;98602.31;5007448;28;19929;-85
2022/08/09 04:09:07;;;;;;;;;;;;;;;24.52;46.13;98596.84;5008006;28;20036;-85
2022/08/09 04:11:51;;;;;;;;;;;;;;;24.52;46.05;98606.97;5007988;28;20412;-85
2022/08/09 04:14:18;;;;;;;;;;;;;;;24.37;46.23;98602.16;5002364;28;20020;-86
2022/08/09 04:16:44;;;;;;;;;;;;;;;24.40;46.17;98613.19;5007889;28;20040;-86
2022/08/09 04:19:12;;;;;;;;;;;;;;;24.31;46.55;98604.31;5007359;28;20375;-85
2022/08/09 04:21:40;;;;;;;;;;;;;;;24.37;46.32;98607.59;5006612;28;19933;-86
2022/08/09 04:24:06;;;;;;;;;;;;;;;24.40;46.36;98610.47;5007297;28;19961;-86
2022/08/09 04:26:33;;;;;;;;;;;;;;;24.40;46.48;98613.19;5007380;28;19961;-85
2022/08/09 04:28:59;;;;;;;;;;;;;;;24.21;46.84;98610.16;4989965;28;20000;-85
2022/08/09 04:31:25;;;;;;;;;;;;;;;24.01;47.06;98613.69;5001530;28;20024;-85
2022/08/09 04:33:52;;;;;;;;;;;;;;;24.07;47.24;98618.63;5001806;28;19936;-84
2022/08/09 04:36:18;;;;;;;;;;;;;;;23.93;47.27;98622.72;5012898;28;19929;-86
2022/08/09 04:38:46;;;;;;;;;;;;;;;23.79;47.67;98612.09;5006655;28;19951;-87
2022/08/09 04:41:12;;;;;;;;;;;;;;;23.90;47.67;98618.75;5009139;28;20297;-85
2022/08/09 04:43:39;;;;;;;;;;;;;;;23.59;48.25;98623.78;5013369;28;19961;-86
2022/08/09 04:46:06;;;;;;;;;;;;;;;23.61;48.14;98625.03;4992938;28;20024;-86
2022/08/09 04:48:32;;;;;;;;;;;;;;;23.77;47.94;98635.38;5010118;28;19930;-85
2022/08/09 04:50:58;;;;;;;;;;;;;;;23.79;47.95;98631.19;4991214;28;19937;-85
2022/08/09 04:53:25;;;;;;;;;;;;;;;23.94;47.61;98632.53;4993926;28;20004;-86
2022/08/09 04:55:53;;;;;;;;;;;;;;;24.02;47.37;98635.19;5014413;28;19926;-85
2022/08/09 04:58:19;;;;;;;;;;;;;;;24.16;47.28;98634.94;4992879;28;20096;-85
2022/08/09 05:00:45;;;;;;;;;;;;;;;24.20;47.22;98635.88;5000118;28;19926;-86
2022/08/09 05:03:12;;;;;;;;;;;;;;;24.22;47.31;98639.06;5005911;28;19965;-84
2022/08/09 05:05:39;;;;;;;;;;;;;;;24.27;47.12;98638.84;5005821;28;19937;-85
2022/08/09 05:08:05;;;;;;;;;;;;;;;24.15;47.42;98642.31;5006338;28;19925;-85
2022/08/09 05:10:32;;;;;;;;;;;;;;;24.12;47.30;98634.00;5006524;28;19929;-86
2022/08/09 05:12:59;;;;;;;;;;;;;;;24.12;47.42;98639.47;5006358;28;20024;-86
2022/08/09 05:15:27;;;;;;;;;;;;;;;24.20;47.17;98635.88;5006295;28;19929;-86
2022/08/09 05:17:53;;;;;;;;;;;;;;;24.16;47.58;98640.41;5003557;28;20037;-85
2022/08/09 05:20:20;;;;;;;;;;;;;;;24.12;47.62;98639.47;5000065;28;19933;-85
2022/08/09 05:22:47;;;;;;;;;;;;;;;23.95;48.04;98645.81;5005529;28;19930;-86
2022/08/09 05:25:15;;;;;;;;;;;;;;;24.00;47.57;98642.91;5005083;28;20000;-86
2022/08/09 05:27:41;;;;;;;;;;;;;;;24.07;47.46;98654.09;5005253;28;20624;-85
2022/08/09 05:30:10;;;;;;;;;;;;;;;24.05;47.55;98645.44;5002804;28;19949;-87
2022/08/09 05:32:36;;;;;;;;;;;;;;;24.07;47.79;98643.19;5003537;28;20632;-86
2022/08/09 05:35:04;;;;;;;;;;;;;;;24.04;47.74;98648.50;4995966;28;19936;-85
2022/08/09 05:37:30;;;;;;;;;;;;;;;23.77;48.07;98644.34;4992299;28;19952;-86
2022/08/09 05:39:57;;;;;;;;;;;;;;;23.86;48.10;98655.22;4990630;28;19932;-85
2022/08/09 05:42:24;;;;;;;;;;;;;;;23.92;48.09;98662.06;4992251;28;19933;-86
2022/08/09 05:44:51;;;;;;;;;;;;;;;23.88;48.36;98661.13;4989209;28;20016;-86
2022/08/09 05:47:19;;;;;;;;;;;;;;;23.94;48.09;98665.25;4995692;28;20008;-85
2022/08/09 05:49:45;;;;;;;;;;;;;;;23.99;48.27;98667.78;4991253;28;19932;-85
2022/08/09 05:52:12;;;;;;;;;;;;;;;24.02;48.10;98670.66;5001493;28;20028;-85
2022/08/09 05:54:38;;;;;;;;;;;;;;;24.25;47.82;98662.97;4998868;28;20024;-85
2022/08/09 05:57:05;;;;;;;;;;;;;;;24.08;48.04;98654.88;4997072;28;19937;-85
2022/08/09 05:59:32;;;;;;;;;;;;;;;24.20;48.03;98660.44;4996778;28;19940;-85
2022/08/09 06:01:58;;;;;;;;;;;;;;;24.14;48.68;98661.75;5002350;28;19929;-84
2022/08/09 06:04:26;;;;;;;;;;;;;;;24.20;48.44;98659.66;5003013;28;19977;-85
2022/08/09 06:06:52;;;;;;;;;;;;;;;24.22;48.34;98666.34;5006205;28;19929;-86
2022/08/09 06:09:19;;;;;;;;;;;;;;;24.46;48.18;98665.66;5004457;28;20616;-86
2022/08/09 06:11:45;;;;;;;;;;;;;;;24.66;47.81;98671.06;5006779;28;19932;-85
2022/08/09 06:14:12;;;;;;;;;;;;;;;24.71;47.73;98659.97;5005864;28;19926;-85
2022/08/09 06:16:38;;;;;;;;;;;;;;;24.62;48.07;98664.72;5004523;28;20022;-85
2022/08/09 06:19:04;;;;;;;;;;;;;;;24.79;47.86;98668.41;5005963;28;19940;-86
2022/08/09 06:21:32;;;;;;;;;;;;;;;25.17;47.63;98671.69;5000760;28;19925;-85
2022/08/09 06:23:58;;;;;;;;;;;;;;;25.53;47.06;98671.72;4998831;28;20040;-84
2022/08/09 06:26:25;;;;;;;;;;;;;;;25.61;46.86;98673.56;5005495;28;20009;-84
2022/08/09 06:28:52;;;;;;;;;;;;;;;25.60;46.88;98671.97;5004238;28;19929;-85
2022/08/09 06:31:18;;;;;;;;;;;;;;;25.83;46.65;98671.47;5000931;28;19930;-85
2022/08/09 06:33:44;;;;;;;;;;;;;;;25.68;46.78;98673.78;5000330;28;19972;-85
2022/08/09 06:36:11;;;;;;;;;;;;;;;25.96;46.55;98675.81;5002066;28;20418;-86
2022/08/09 06:38:39;;;;;;;;;;;;;;;26.23;46.25;98669.59;5004569;28;19982;-85
2022/08/09 06:41:06;;;;;;;;;;;;;;;26.28;46.01;98672.09;4990679;28;19926;-86
2022/08/09 06:43:32;;;;;;;;;;;;;;;26.18;46.36;98680.81;5002596;28;19929;-85
2022/08/09 06:45:58;;;;;;;;;;;;;;;26.44;46.09;98678.41;4992309;28;19947;-85
2022/08/09 06:48:25;;;;;;;;;;;;;;;26.29;46.24;98682.69;5011260;28;20039;-85
2022/08/09 06:50:52;;;;;;;;;;;;;;;26.59;45.70;98674.94;4994861;28;19929;-85
2022/08/09 06:53:18;;;;;;;;;;;;;;;26.83;45.65;98689.69;4996351;28;19926;-84
2022/08/09 06:55:46;;;;;;;;;;;;;;;26.95;45.50;98684.94;5000974;28;20394;-85
2022/08/09 06:58:12;;;;;;;;;;;;;;;26.69;45.47;98693.63;4997506;28;19936;-86
2022/08/09 07:00:38;;;;;;;;;;;;;;;26.90;45.53;98687.94;5006585;28;20000;-85
2022/08/09 07:03:05;;;;;;;;;;;;;;;26.89;44.90;98689.09;5008130;28;19933;-84
2022/08/09 07:05:31;;;;;;;;;;;;;;;27.13;45.35;98688.16;5008984;28;20029;-86
2022/08/09 07:07:58;;;;;;;;;;;;;;;27.21;44.62;98695.41;5008548;28;20355;-85
2022/08/09 07:10:24;;;;;;;;;;;;;;;26.75;45.00;98694.16;5008618;28;19930;-85
2022/08/09 07:12:52;;;;;;;;;;;;;;;26.98;45.54;98695.22;5009011;28;20431;-86
2022/08/09 07:15:18;;;;;;;;;;;;;;;27.19;45.12;98686.72;5007866;28;19932;-85
2022/08/09 07:17:44;;;;;;;;;;;;;;;27.32;44.88;98683.56;5009510;28;20589;-86
2022/08/09 07:20:11;;;;;;;;;;;;;;;27.58;44.40;98693.19;5009313;28;19925;-86
2022/08/09 07:22:37;;;;;;;;;;;;;;;27.72;44.28;98690.81;5006650;28;19930;-86
2022/08/09 07:25:04;;;;;;;;;;;;;;;26.91;44.28;98691.47;5007119;28;20374;-85
2022/08/09 07:27:30;;;;;;;;;;;;;;;26.73;44.52;98689.03;5008284;28;20036;-85
2022/08/09 07:29:58;;;;;;;;;;;;;;;26.58;44.66;98692.53;5005204;28;19957;-86
2022/08/09 07:32:25;;;;;;;;;;;;;;;27.12;45.21;98689.28;4998425;28;20020;-85
2022/08/09 07:34:51;;;;;;;;;;;;;;;27.51;44.65;98693.06;4991757;28;20041;-85
2022/08/09 07:37:18;;;;;;;;;;;;;;;27.65;44.15;98688.69;4991856;28;20471;-85
2022/08/09 07:39:44;;;;;;;;;;;;;;;27.58;44.24;98688.50;4986725;28;19925;-84
2022/08/09 07:42:10;;;;;;;;;;;;;;;27.72;44.09;98688.06;4986081;28;20504;-86
2022/08/09 07:44:37;;;;;;;;;;;;;;;27.68;43.79;98687.97;4981707;28;20388;-85
2022/08/09 07:47:04;;;;;;;;;;;;;;;27.40;44.21;98687.25;4987316;28;20445;-85
2022/08/09 07:49:31;;;;;;;;;;;;;;;27.49;43.64;98689.84;4987169;28;20408;-85
2022/08/09 07:51:58;;;;;;;;;;;;;;;27.68;43.09;98687.97;5004523;28;19954;-85
2022/08/09 07:54:26;;;;;;;;;;;;;;;27.02;42.33;98693.34;4994932;28;20020;-85
2022/08/09 07:56:53;;;;;;;;;;;;;;;26.54;43.42;98693.56;4984293;28;19969;-85
2022/08/09 07:59:20;;;;;;;;;;;;;;;27.10;43.48;98694.34;4992693;28;19929;-85
2022/08/09 08:01:46;;;;;;;;;;;;;;;26.54;43.01;98694.38;4995478;28;19932;-86
2022/08/09 08:04:14;;;;;;;;;;;;;;;26.22;44.40;98684.41;4998248;28;19949;-85
2022/08/09 08:06:40;;;;;;;;;;;;;;;26.63;43.94;98686.78;5003627;28;20499;-85
2022/08/09 08:09:07;;;;;;;;;;;;;;;26.11;44.01;98688.78;5000170;28;19925;-84
2022/08/09 08:11:33;;;;;;;;;;;;;;;26.05;44.19;98687.41;5001068;28;20008;-84
2022/08/09 08:13:59;;;;;;;;;;;;;;;26.63;44.31;98686.78;5001096;28;20352;-83
2022/08/09 08:16:26;;;;;;;;;;;;;;;26.56;44.24;98685.78;4997627;28;19926;-84
2022/08/09 08:18:52;;;;;;;;;;;;;;;26.02;44.17;98688.09;5001723;28;20412;-85
2022/08/09 08:21:20;;;;;;;;;;;;;;;25.96;44.68;98689.50;4999769;28;20149;-86
2022/08/09 08:23:46;;;;;;;;;;;;;;;26.95;43.82;98692.38;4995705;28;19929;-85
2022/08/09 08:26:13;;;;;;;;;;;;;;;27.09;43.37;98695.47;4998168;28;20572;-86
2022/08/09 08:28:40;;;;;;;;;;;;;;;27.55;42.97;98691.16;5000025;28;19995;-85
2022/08/09 08:31:06;;;;;;;;;;;;;;;27.95;42.21;98686.22;4997558;28;19932;-85
2022/08/09 08:33:32;;;;;;;;;;;;;;;27.46;41.86;98683.13;4987099;28;19933;-84
2022/08/09 08:35:59;;;;;;;;;;;;;;;26.57;42.38;98690.13;4990756;28;20011;-84
2022/08/09 08:38:26;;;;;;;;;;;;;;;26.11;43.12;98688.78;4997124;28;20017;-85
2022/08/09 08:40:54;;;;;;;;;;;;;;;25.78;43.74;98695.19;4988350;28;20383;-85
2022/08/09 08:43:22;;;;;;;;;;;;;;;26.20;44.00;98692.19;4980503;28;19940;-85
2022/08/09 08:45:49;;;;;;;;;;;;;;;26.36;43.11;98695.81;4997374;28;20316;-85
2022/08/09 08:48:16;;;;;;;;;;;;;;;26.47;43.40;98687.88;4988879;28;20340;-85
2022/08/09 08:50:42;;;;;;;;;;;;;;;26.54;42.98;98690.81;4986694;28;20630;-85
2022/08/09 08:53:09;;;;;;;;;;;;;;;26.08;43.23;98681.25;4987566;28;19969;-85
2022/08/09 08:55:37;;;;;;;;;;;;;;;26.55;43.64;98687.75;5008998;28;20452;-85
2022/08/09 08:58:04;;;;;;;;;;;;;;;27.07;42.25;98690.34;4991627;28;19932;-86
2022/08/09 09:00:31;;;;;;;;;;;;;;;26.97;42.32;98693.63;5005190;28;20008;-85
2022/08/09 09:02:58;;;;;;;;;;;;;;;27.20;42.09;98689.09;4997519;28;19936;-85
2022/08/09 09:05:25;;;;;;;;;;;;;;;26.74;42.11;98687.88;5017679;28;19929;-85
2022/08/09 09:07:52;;;;;;;;;;;;;;;26.40;42.77;98688.47;5002907;28;19925;-83
2022/08/09 09:10:19;;;;;;;;;;;;;;;26.13;43.12;98689.22;5005524;28;20020;-85
2022/08/09 09:12:48;;;;;;;;;;;;;;;26.05;43.22;98687.41;5003703;28;20126;-85
2022/08/09 09:15:15;;;;;;;;;;;;;;;26.04;42.91;98685.81;5004991;28;19926;-85
2022/08/09 09:17:41;;;;;;;;;;;;;;;26.26;42.89;98683.41;5004741;28;20008;-87
2022/08/09 09:20:08;;;;;;;;;;;;;;;26.67;42.69;98684.16;4999058;28;20425;-86
2022/08/09 09:22:49;;;;;;;;;;;;;;;26.99;41.79;98676.78;5003401;28;19936;-85
2022/08/09 09:25:29;;;;;;;;;;;;;;;27.16;42.02;98677.28;5016824;28;20040;-85
2022/08/09 09:27:57;;;;;;;;;;;;;;;26.78;40.78;98682.50;5005943;28;19936;-85
2022/08/09 09:30:24;;;;;;;;;;;;;;;27.07;41.54;98684.06;5003757;28;19968;-85
2022/08/09 09:33:00;;;;;;;;;;;;;;;27.35;41.23;98679.31;4995372;28;20475;-85
2022/08/09 09:35:26;;;;;;;;;;;;;;;27.80;40.95;98673.34;4994519;28;19929;-85
2022/08/09 09:37:53;;;;;;;;;;;;;;;28.62;39.57;98676.69;4994289;28;19932;-85
2022/08/09 09:40:19;;;;;;;;;;;;;;;28.51;39.15;98670.19;4990243;28;19934;-85
2022/08/09 09:42:55;;;;;;;;;;;;;;;28.06;39.02;98672.78;4993934;28;19964;-85
2022/08/09 09:45:23;;;;;;;;;;;;;;;28.11;39.99;98672.47;5003602;28;19941;-84
2022/08/09 09:47:49;;;;;;;;;;;;;;;27.27;39.75;98672.03;4996945;28;20443;-83
2022/08/09 09:50:20;;;;;;;;;;;;;;;26.98;40.50;98675.22;4988738;28;20024;-85
2022/08/09 09:52:50;;;;;;;;;;;;;;;27.19;40.54;98670.28;4989806;28;20008;-84
2022/08/09 09:55:17;;;;;;;;;;;;;;;27.40;40.93;98670.00;4988474;28;20573;-85
2022/08/09 09:57:55;;;;;;;;;;;;;;;27.76;39.74;98667.75;4986421;28;20012;-84
2022/08/09 10:00:23;;;;;;;;;;;;;;;28.23;39.97;98659.41;4988907;28;20665;-85
2022/08/09 10:02:50;;;;;;;;;;;;;;;27.55;39.97;98672.75;4996488;28;19929;-84
2022/08/09 10:05:16;;;;;;;;;;;;;;;27.75;40.25;98677.16;4995417;28;20056;-85
2022/08/09 10:07:43;;;;;;;;;;;;;;;27.82;39.27;98674.56;4993543;28;19937;-86
2022/08/09 10:10:09;;;;;;;;;;;;;;;27.27;39.63;98678.31;4995532;28;20028;-85
2022/08/09 10:12:39;;;;;;;;;;;;;;;27.54;39.51;98664.91;4995506;28;20036;-85
2022/08/09 10:15:09;;;;;;;;;;;;;;;28.06;39.08;98659.84;4993438;28;20589;-84
2022/08/09 10:17:36;;;;;;;;;;;;;;;27.43;39.63;98681.09;4995062;28;19933;-83
2022/08/09 10:20:05;;;;;;;;;;;;;;;27.27;39.46;98664.59;4994761;28;19935;-85
2022/08/09 10:22:32;;;;;;;;;;;;;;;27.24;39.95;98656.28;4995248;28;19940;-85
2022/08/09 10:24:59;;;;;;;;;;;;;;;27.41;39.65;98664.19;5003322;28;20008;-85
2022/08/09 10:27:26;;;;;;;;;;;;;;;28.07;39.49;98663.41;4995633;28;19955;-84
2022/08/09 10:29:52;;;;;;;;;;;;;;;27.97;39.67;98655.69;5005842;28;20402;-85
2022/08/09 10:32:19;;;;;;;;;;;;;;;28.13;39.42;98650.97;4994223;28;20371;-85
2022/08/09 10:34:47;;;;;;;;;;;;;;;28.15;38.73;98657.69;4991203;28;19926;-85
2022/08/09 10:37:14;;;;;;;;;;;;;;;27.95;39.00;98649.72;4992741;28;20376;-85
2022/08/09 10:39:40;;;;;;;;;;;;;;;28.01;38.64;98657.34;4989175;28;19972;-85
2022/08/09 10:42:07;;;;;;;;;;;;;;;27.75;39.09;98663.44;5006656;28;20017;-85
2022/08/09 10:44:34;;;;;;;;;;;;;;;27.52;39.38;98659.75;4988585;28;19951;-86
2022/08/09 10:47:24;;;;;;;;;;;;;;;27.34;39.55;98650.28;4993194;28;20024;-85
2022/08/09 10:49:57;;;;;;;;;;;;;;;27.37;39.73;98633.09;4990694;28;19945;-86
2022/08/09 10:52:40;;;;;;;;;;;;;;;27.40;39.09;98642.56;4994313;28;19926;-85
2022/08/09 10:55:18;;;;;;;;;;;;;;;27.45;39.72;98640.38;4994509;28;19934;-84
2022/08/09 10:57:45;;;;;;;;;;;;;;;28.24;39.20;98638.25;4992558;28;19925;-86
2022/08/09 11:00:26;;;;;;;;;;;;;;;27.91;39.26;98629.66;5001921;28;20452;-87
2022/08/09 11:02:53;;;;;;;;;;;;;;;27.86;39.37;98628.78;5021494;28;20376;-85
2022/08/09 11:05:21;;;;;;;;;;;;;;;27.92;38.92;98617.50;5003420;28;19937;-85
2022/08/09 11:07:48;;;;;;;;;;;;;;;27.89;39.15;98630.00;5005049;28;19936;-84
2022/08/09 11:10:14;;;;;;;;;;;;;;;27.83;39.28;98625.97;5005411;28;19965;-85
2022/08/09 11:12:43;;;;;;;;;;;;;;;27.75;39.63;98640.69;5005533;28;19925;-85
2022/08/09 11:15:23;;;;;;;;;;;;;;;27.87;39.24;98624.91;5005326;28;19925;-85
2022/08/09 11:17:51;;;;;;;;;;;;;;;27.81;39.24;98629.06;5004054;28;19952;-85
2022/08/09 11:20:20;;;;;;;;;;;;;;;28.61;39.52;98622.88;5003978;28;19929;-85
2022/08/09 11:22:58;;;;;;;;;;;;;;;28.39;38.25;98623.63;5003096;28;20075;-85
2022/08/09 11:25:35;;;;;;;;;;;;;;;28.59;38.94;98621.66;5005211;28;19930;-85
2022/08/09 11:28:22;;;;;;;;;;;;;;;28.68;38.16;98612.06;5005072;28;19937;-89
2022/08/09 11:30:48;;;;;;;;;;;;;;;28.73;38.59;98605.44;5003649;28;19933;-85
2022/08/09 11:33:25;;;;;;;;;;;;;;;28.52;38.47;98608.56;4987580;28;19934;-87
2022/08/09 11:35:54;;;;;;;;;;;;;;;28.32;39.32;98613.28;5002728;28;20455;-86
2022/08/09 11:38:23;;;;;;;;;;;;;;;28.13;38.96;98616.03;5011202;28;19965;-83
2022/08/09 11:40:50;;;;;;;;;;;;;;;27.88;38.87;98620.97;4996380;28;19965;-85
2022/08/09 11:43:17;;;;;;;;;;;;;;;27.81;39.50;98620.84;4989662;28;19925;-84
2022/08/09 11:45:53;;;;;;;;;;;;;;;27.77;39.73;98608.97;4995687;28;20020;-84
2022/08/09 11:48:21;;;;;;;;;;;;;;;27.86;39.51;98609.56;4996893;28;19926;-85
2022/08/09 11:51:02;;;;;;;;;;;;;;;28.29;39.29;98607.72;4994990;28;20395;-84
2022/08/09 11:53:30;;;;;;;;;;;;;;;28.00;39.22;98617.31;4995788;28;19930;-83
2022/08/09 11:55:59;;;;;;;;;;;;;;;27.65;39.96;98609.09;5000953;28;19960;-84
2022/08/09 11:58:41;;;;;;;;;;;;;;;27.73;40.01;98599.09;4994360;28;19930;-85
2022/08/09 12:01:08;;;;;;;;;;;;;;;27.79;40.10;98603.91;4999555;28;19926;-83
2022/08/09 12:03:35;;;;;;;;;;;;;;;28.27;39.89;98601.81;5008216;28;20286;-84
2022/08/09 12:06:02;;;;;;;;;;;;;;;28.47;39.21;98592.41;5003949;28;19940;-84
2022/08/09 12:08:30;;;;;;;;;;;;;;;28.36;39.21;98599.63;5003285;28;19930;-83
2022/08/09 12:10:57;;;;;;;;;;;;;;;28.09;39.48;98592.41;5008270;28;19930;-85
2022/08/09 12:13:34;;;;;;;;;;;;;;;28.61;39.83;98603.66;5008323;28;19964;-86
2022/08/09 12:16:01;;;;;;;;;;;;;;;28.56;39.42;98597.66;5008128;28;19960;-83
2022/08/09 12:18:27;;;;;;;;;;;;;;;28.55;39.33;98605.09;5007880;28;19929;-83
2022/08/09 12:20:54;;;;;;;;;;;;;;;28.58;39.63;98590.63;5006796;28;20024;-84
2022/08/09 12:23:21;;;;;;;;;;;;;;;28.70;39.66;98593.22;5007478;28;19969;-84
2022/08/09 12:25:49;;;;;;;;;;;;;;;28.54;39.65;98595.25;5006457;28;19976;-83
2022/08/09 12:28:43;;;;;;;;;;;;;;;28.63;39.38;98589.50;5007315;28;19968;-85
2022/08/09 12:31:20;;;;;;;;;;;;;;;28.94;39.15;98589.31;4999271;28;20005;-84
2022/08/09 12:33:47;;;;;;;;;;;;;;;29.10;39.26;98591.94;4994441;28;19929;-85
2022/08/09 12:36:13;;;;;;;;;;;;;;;28.89;38.64;98579.44;5022992;28;20031;-84
2022/08/09 12:38:40;;;;;;;;;;;;;;;28.99;39.00;98594.53;5004973;28;19968;-85
2022/08/09 12:41:08;;;;;;;;;;;;;;;29.08;38.59;98578.56;5006990;28;20365;-84
2022/08/09 12:43:35;;;;;;;;;;;;;;;29.33;38.87;98578.97;5002474;28;19993;-84
2022/08/09 12:46:01;;;;;;;;;;;;;;;28.96;38.94;98583.47;5005754;28;19963;-86
2022/08/09 12:48:28;;;;;;;;;;;;;;;28.97;39.26;98577.56;5008548;28;19929;-84
2022/08/09 12:50:55;;;;;;;;;;;;;;;28.84;39.00;98582.47;5000478;28;19929;-84
2022/08/09 12:53:29;;;;;;;;;;;;;;;28.72;39.26;98579.91;5012889;28;19947;-83